createdAt,value
2019-03-09T00:01:50.364Z,75.94
2019-03-09T00:04:20.849Z,76.07
2019-03-09T00:06:51.609Z,76.09
2019-03-09T00:09:22.665Z,75.86
2019-03-09T00:11:53.294Z,75.75
2019-03-09T00:14:23.957Z,75.82
2019-03-09T00:16:54.581Z,75.79
2019-03-09T00:19:26.356Z,75.65
2019-03-09T00:21:57.115Z,75.66
2019-03-09T00:24:42.171Z,75.81
2019-03-09T00:27:29.519Z,75.95
2019-03-09T00:29:59.904Z,76.62
2019-03-09T00:32:30.433Z,77.27
2019-03-09T00:35:01.166Z,77.24
2019-03-09T00:37:31.822Z,77.03
2019-03-09T00:40:03.624Z,77.17
2019-03-09T00:42:34.219Z,77.16
2019-03-09T00:45:05.110Z,77.08
2019-03-09T00:47:36.043Z,77.52
2019-03-09T00:50:08.477Z,76.87
2019-03-09T00:52:40.607Z,76.87
2019-03-09T00:55:12.459Z,77.27
2019-03-09T00:57:43.035Z,77.18
2019-03-09T01:00:19.282Z,77.43
2019-03-09T01:02:51.207Z,77.59
2019-03-09T01:05:22.511Z,77.51
2019-03-09T01:07:53.283Z,77.31
2019-03-09T01:10:24.091Z,76.88
2019-03-09T01:12:54.767Z,77.19
2019-03-09T01:15:25.604Z,77.52
2019-03-09T01:17:56.604Z,77.25
2019-03-09T01:20:27.088Z,77.60
2019-03-09T01:22:58.108Z,77.33
2019-03-09T01:25:28.709Z,76.99
2019-03-09T01:27:59.555Z,77.45
2019-03-09T01:30:30.249Z,77.93
2019-03-09T01:33:01.501Z,78.35
2019-03-09T01:35:31.978Z,78.07
2019-03-09T01:38:03.059Z,77.39
2019-03-09T01:40:34.061Z,77.19
2019-03-09T01:43:05.008Z,76.87
2019-03-09T01:45:35.819Z,76.56
2019-03-09T01:48:07.000Z,76.64
2019-03-09T01:50:38.129Z,76.56
2019-03-09T01:53:10.180Z,76.47
2019-03-09T01:55:40.956Z,76.44
2019-03-09T01:58:11.870Z,76.27
2019-03-09T02:00:42.772Z,77.14
2019-03-09T02:03:14.193Z,77.14
2019-03-09T02:05:45.011Z,77.20
2019-03-09T02:08:15.682Z,77.03
2019-03-09T02:10:46.273Z,76.73
2019-03-09T02:13:17.034Z,76.31
2019-03-09T02:15:48.402Z,75.88
2019-03-09T02:18:19.066Z,75.15
2019-03-09T02:20:49.901Z,74.55
2019-03-09T02:23:20.878Z,74.03
2019-03-09T02:25:51.460Z,73.17
2019-03-09T02:28:22.431Z,72.29
2019-03-09T02:30:53.345Z,70.85
2019-03-09T02:33:24.213Z,68.96
2019-03-09T02:35:54.946Z,68.18
2019-03-09T02:38:44.669Z,68.00
2019-03-09T02:41:15.692Z,68.88
2019-03-09T02:43:46.364Z,70.00
2019-03-09T02:46:17.058Z,71.45
2019-03-09T02:48:47.896Z,72.07
2019-03-09T02:51:18.679Z,72.51
2019-03-09T02:53:49.997Z,72.78
2019-03-09T02:56:20.609Z,73.12
2019-03-09T02:58:51.361Z,73.24
2019-03-09T03:01:30.892Z,73.48
2019-03-09T03:04:02.673Z,73.50
2019-03-09T03:06:33.368Z,73.16
2019-03-09T03:09:06.389Z,72.73
2019-03-09T03:11:37.611Z,70.85
2019-03-09T03:14:08.363Z,69.66
2019-03-09T03:16:39.250Z,67.92
2019-03-09T03:19:10.112Z,66.92
2019-03-09T03:21:40.660Z,65.71
2019-03-09T03:24:11.356Z,65.55
2019-03-09T03:26:42.000Z,65.51
2019-03-09T03:29:13.269Z,64.08
2019-03-09T03:31:44.047Z,64.13
2019-03-09T03:34:14.967Z,64.13
2019-03-09T03:36:45.724Z,63.14
2019-03-09T03:39:16.575Z,60.91
2019-03-09T03:41:47.044Z,58.60
2019-03-09T03:44:17.697Z,57.86
2019-03-09T03:46:48.771Z,58.07
2019-03-09T03:49:19.262Z,58.19
2019-03-09T03:51:51.290Z,57.74
2019-03-09T03:54:21.973Z,58.01
2019-03-09T03:56:52.935Z,58.62
2019-03-09T03:59:23.928Z,60.79
2019-03-09T04:01:54.781Z,63.45
2019-03-09T04:04:26.862Z,64.88
2019-03-09T04:06:57.898Z,64.98
2019-03-09T04:09:28.651Z,66.16
2019-03-09T04:11:59.857Z,66.82
2019-03-09T04:14:31.808Z,67.80
2019-03-09T04:17:03.836Z,68.21
2019-03-09T04:19:34.756Z,68.99
2019-03-09T04:22:06.698Z,69.57
2019-03-09T04:24:40.747Z,69.51
2019-03-09T04:27:13.705Z,70.22
2019-03-09T04:29:44.409Z,70.77
2019-03-09T04:32:16.190Z,70.97
2019-03-09T04:34:46.907Z,72.05
2019-03-09T04:37:17.741Z,72.51
2019-03-09T04:39:48.690Z,72.67
2019-03-09T04:42:20.869Z,72.76
2019-03-09T04:44:54.495Z,72.98
2019-03-09T04:47:25.139Z,72.85
2019-03-09T04:49:56.988Z,72.25
2019-03-09T04:52:27.840Z,71.82
2019-03-09T04:54:58.772Z,71.47
2019-03-09T04:57:30.516Z,71.11
2019-03-09T05:00:01.238Z,70.94
2019-03-09T05:02:32.422Z,70.44
2019-03-09T05:05:03.114Z,69.81
2019-03-09T05:07:39.029Z,69.64
2019-03-09T05:10:31.165Z,69.24
2019-03-09T05:13:08.635Z,68.84
2019-03-09T05:15:39.379Z,68.41
2019-03-09T05:18:10.054Z,67.68
2019-03-09T05:20:40.790Z,67.35
2019-03-09T05:23:11.468Z,67.17
2019-03-09T05:25:42.102Z,67.15
2019-03-09T05:28:12.946Z,67.48
2019-03-09T05:30:49.620Z,66.95
2019-03-09T05:33:20.510Z,66.69
2019-03-09T05:35:51.378Z,66.26
2019-03-09T05:38:22.502Z,66.11
2019-03-09T05:40:53.370Z,65.73
2019-03-09T05:43:24.382Z,66.08
2019-03-09T05:45:55.177Z,65.55
2019-03-09T05:48:26.050Z,65.03
2019-03-09T05:50:56.755Z,63.27
2019-03-09T05:53:27.521Z,63.78
2019-03-09T05:55:58.145Z,63.36
2019-03-09T05:58:29.354Z,62.51
2019-03-09T06:01:00.405Z,61.54
2019-03-09T06:03:32.078Z,61.08
2019-03-09T06:06:16.874Z,59.62
2019-03-09T06:08:48.132Z,58.88
2019-03-09T06:11:18.989Z,58.53
2019-03-09T06:13:49.802Z,56.95
2019-03-09T06:16:20.339Z,56.04
2019-03-09T06:18:50.955Z,55.28
2019-03-09T06:21:21.906Z,54.47
2019-03-09T06:23:53.004Z,53.76
2019-03-09T06:26:23.703Z,54.47
2019-03-09T06:28:54.454Z,53.86
2019-03-09T06:31:25.648Z,52.88
2019-03-09T06:33:58.066Z,52.40
2019-03-09T06:36:59.883Z,51.77
2019-03-09T06:39:42.278Z,49.83
2019-03-09T06:42:42.568Z,47.79
2019-03-09T06:45:14.802Z,46.43
2019-03-09T06:47:45.603Z,47.41
2019-03-09T06:50:18.097Z,47.00
2019-03-09T06:52:48.829Z,48.80
2019-03-09T06:55:19.852Z,49.68
2019-03-09T06:57:50.506Z,49.72
2019-03-09T07:00:41.787Z,49.53
2019-03-09T07:03:13.089Z,50.62
2019-03-09T07:05:43.832Z,50.55
2019-03-09T07:08:14.446Z,51.04
2019-03-09T07:10:45.499Z,50.91
2019-03-09T07:13:16.471Z,50.95
2019-03-09T07:15:48.077Z,51.01
2019-03-09T07:18:20.518Z,50.33
2019-03-09T07:20:51.250Z,50.09
2019-03-09T07:23:22.016Z,49.64
2019-03-09T07:25:53.669Z,49.46
2019-03-09T07:28:24.780Z,51.00
2019-03-09T07:30:55.701Z,50.77
2019-03-09T07:33:26.729Z,50.68
2019-03-09T07:35:57.364Z,49.74
2019-03-09T07:38:28.414Z,49.21
2019-03-09T07:40:59.012Z,48.92
2019-03-09T07:43:30.570Z,49.45
2019-03-09T07:46:01.593Z,49.13
2019-03-09T07:48:32.520Z,49.02
2019-03-09T07:51:03.393Z,44.21
2019-03-09T07:53:34.130Z,46.82
2019-03-09T07:56:04.933Z,47.21
2019-03-09T07:58:35.531Z,46.08
2019-03-09T08:01:06.243Z,39.74
2019-03-09T08:03:37.206Z,42.03
2019-03-09T08:06:08.050Z,41.19
2019-03-09T08:08:38.859Z,41.04
2019-03-09T08:11:12.273Z,42.71
2019-03-09T08:13:43.271Z,37.89
2019-03-09T08:16:13.898Z,43.10
2019-03-09T08:18:45.387Z,43.73
2019-03-09T08:21:16.391Z,38.50
2019-03-09T08:23:47.277Z,42.85
2019-03-09T08:26:18.544Z,42.30
2019-03-09T08:28:49.548Z,38.02
2019-03-09T08:31:20.891Z,39.60
2019-03-09T08:33:51.701Z,39.31
2019-03-09T08:36:22.704Z,37.61
2019-03-09T08:38:53.472Z,39.49
2019-03-09T08:41:24.270Z,40.48
2019-03-09T08:43:55.023Z,40.36
2019-03-09T08:46:25.645Z,40.25
2019-03-09T08:48:57.253Z,38.41
2019-03-09T08:51:29.136Z,38.67
2019-03-09T08:53:59.751Z,39.21
2019-03-09T08:56:33.491Z,38.74
2019-03-09T08:59:04.400Z,38.75
2019-03-09T09:01:34.962Z,38.19
2019-03-09T09:04:06.998Z,38.26
2019-03-09T09:06:37.651Z,38.57
2019-03-09T09:09:08.652Z,38.00
2019-03-09T09:11:39.736Z,37.97
2019-03-09T09:14:10.331Z,37.68
2019-03-09T09:16:41.333Z,37.21
2019-03-09T09:19:15.780Z,38.02
2019-03-09T09:21:46.635Z,38.41
2019-03-09T09:24:18.315Z,38.82
2019-03-09T09:26:48.949Z,37.92
2019-03-09T09:29:19.803Z,34.98
2019-03-09T09:31:50.940Z,36.70
2019-03-09T09:34:21.708Z,38.84
2019-03-09T09:36:52.469Z,38.11
2019-03-09T09:39:24.209Z,38.00
2019-03-09T09:41:54.988Z,38.11
2019-03-09T09:44:26.018Z,38.34
2019-03-09T09:46:56.858Z,38.26
2019-03-09T09:49:27.609Z,38.57
2019-03-09T09:51:58.239Z,37.48
2019-03-09T09:54:30.513Z,37.53
2019-03-09T09:57:21.146Z,37.34
2019-03-09T09:59:51.947Z,37.82
2019-03-09T10:02:23.864Z,35.61
2019-03-09T10:04:56.019Z,33.18
2019-03-09T10:07:26.694Z,30.93
2019-03-09T10:09:57.656Z,31.10
2019-03-09T10:12:28.393Z,30.99
2019-03-09T10:14:59.056Z,30.45
2019-03-09T10:17:29.870Z,30.12
2019-03-09T10:20:00.603Z,34.16
2019-03-09T10:22:51.354Z,32.57
2019-03-09T10:25:22.409Z,30.79
2019-03-09T10:27:53.200Z,30.99
2019-03-09T10:30:25.661Z,31.14
2019-03-09T10:32:56.373Z,34.23
2019-03-09T10:35:27.155Z,34.72
2019-03-09T10:37:58.060Z,33.80
2019-03-09T10:40:28.895Z,32.39
2019-03-09T10:42:59.645Z,30.13
2019-03-09T10:45:30.504Z,29.82
2019-03-09T10:48:02.501Z,30.49
2019-03-09T10:50:33.530Z,31.38
2019-03-09T10:53:04.429Z,31.13
2019-03-09T10:55:35.262Z,32.51
2019-03-09T10:58:06.208Z,33.70
2019-03-09T11:00:38.460Z,32.64
2019-03-09T11:03:09.340Z,33.60
2019-03-09T11:05:43.137Z,31.21
2019-03-09T11:08:15.289Z,31.80
2019-03-09T11:10:45.931Z,35.44
2019-03-09T11:13:18.152Z,36.77
2019-03-09T11:15:48.852Z,35.75
2019-03-09T11:18:19.621Z,31.23
2019-03-09T11:20:50.660Z,35.48
2019-03-09T11:23:21.538Z,30.58
2019-03-09T11:25:52.129Z,29.82
2019-03-09T11:28:22.960Z,29.31
2019-03-09T11:30:53.927Z,29.21
2019-03-09T11:33:24.588Z,29.44
2019-03-09T11:35:55.714Z,28.77
2019-03-09T11:38:26.664Z,29.06
2019-03-09T11:41:00.600Z,29.21
2019-03-09T11:43:31.499Z,34.03
2019-03-09T11:46:02.200Z,30.96
2019-03-09T11:48:32.864Z,30.83
2019-03-09T11:51:03.924Z,33.65
2019-03-09T11:53:34.575Z,34.45
2019-03-09T11:56:05.297Z,34.55
2019-03-09T11:58:38.151Z,34.63
2019-03-09T12:01:09.554Z,34.50
2019-03-09T12:03:40.330Z,32.95
2019-03-09T12:06:12.221Z,31.88
2019-03-09T12:08:43.304Z,29.81
2019-03-09T12:11:16.095Z,29.72
2019-03-09T12:13:47.231Z,29.65
2019-03-09T12:16:19.367Z,29.24
2019-03-09T12:18:50.133Z,29.32
2019-03-09T12:21:21.628Z,29.72
2019-03-09T12:23:52.611Z,29.13
2019-03-09T12:26:24.493Z,29.17
2019-03-09T12:28:55.616Z,29.53
2019-03-09T12:31:26.709Z,29.53
2019-03-09T12:33:57.303Z,30.07
2019-03-09T12:36:28.395Z,29.47
2019-03-09T12:38:59.488Z,29.51
2019-03-09T12:41:30.299Z,29.80
2019-03-09T12:44:01.465Z,29.55
2019-03-09T12:46:32.339Z,29.87
2019-03-09T12:49:03.079Z,29.76
2019-03-09T12:51:33.871Z,29.89
2019-03-09T12:54:04.767Z,29.60
2019-03-09T12:56:35.354Z,29.72
2019-03-09T12:59:06.071Z,29.86
2019-03-09T13:01:36.877Z,29.95
2019-03-09T13:04:12.752Z,29.98
2019-03-09T13:06:43.775Z,30.02
2019-03-09T13:09:14.441Z,30.17
2019-03-09T13:11:45.064Z,30.40
2019-03-09T13:14:15.855Z,30.49
2019-03-09T13:16:46.689Z,30.80
2019-03-09T13:19:17.474Z,30.78
2019-03-09T13:21:48.575Z,30.57
2019-03-09T13:24:19.400Z,30.31
2019-03-09T13:26:50.017Z,30.61
2019-03-09T13:29:21.946Z,31.07
2019-03-09T13:31:52.809Z,30.90
2019-03-09T13:34:24.598Z,30.93
2019-03-09T13:36:55.348Z,30.19
2019-03-09T13:39:26.253Z,30.02
2019-03-09T13:41:56.978Z,30.20
2019-03-09T13:44:27.673Z,29.68
2019-03-09T13:46:58.607Z,29.89
2019-03-09T13:49:29.474Z,29.70
2019-03-09T13:52:00.210Z,30.30
2019-03-09T13:54:30.861Z,30.40
2019-03-09T13:57:01.674Z,30.79
2019-03-09T13:59:32.496Z,31.10
2019-03-09T14:02:03.431Z,30.86
2019-03-09T14:04:35.570Z,30.94
2019-03-09T14:07:06.202Z,31.12
2019-03-09T14:09:38.291Z,31.01
2019-03-09T14:12:09.082Z,31.65
2019-03-09T14:14:39.839Z,31.47
2019-03-09T14:17:10.601Z,31.85
2019-03-09T14:19:41.354Z,31.67
2019-03-09T14:22:12.110Z,31.62
2019-03-09T14:24:42.869Z,31.30
2019-03-09T14:27:15.125Z,31.63
2019-03-09T14:29:45.990Z,31.86
2019-03-09T14:32:16.663Z,31.69
2019-03-09T14:34:47.521Z,31.75
2019-03-09T14:37:19.399Z,32.09
2019-03-09T14:39:49.978Z,32.18
2019-03-09T14:42:20.686Z,31.91
2019-03-09T14:44:51.482Z,31.66
2019-03-09T14:47:22.344Z,32.04
2019-03-09T14:49:52.932Z,32.56
2019-03-09T14:52:23.602Z,32.72
2019-03-09T14:54:54.430Z,33.00
2019-03-09T14:57:25.244Z,33.11
2019-03-09T14:59:56.070Z,33.12
2019-03-09T15:02:26.931Z,33.54
2019-03-09T15:04:57.691Z,33.69
2019-03-09T15:07:31.071Z,34.10
2019-03-09T15:10:02.189Z,34.37
2019-03-09T15:12:34.040Z,34.49
2019-03-09T15:15:05.235Z,34.64
2019-03-09T15:17:35.745Z,34.97
2019-03-09T15:20:07.067Z,35.00
2019-03-09T15:22:37.841Z,35.58
2019-03-09T15:25:10.477Z,35.46
2019-03-09T15:27:41.357Z,35.63
2019-03-09T15:30:13.518Z,35.73
2019-03-09T15:32:44.399Z,36.14
2019-03-09T15:35:16.439Z,36.27
2019-03-09T15:37:47.364Z,36.57
2019-03-09T15:40:18.564Z,36.60
2019-03-09T15:42:49.668Z,36.74
2019-03-09T15:45:20.411Z,37.15
2019-03-09T15:47:51.023Z,37.38
2019-03-09T15:50:23.538Z,37.33
2019-03-09T15:52:54.976Z,37.41
2019-03-09T15:55:25.616Z,37.64
2019-03-09T15:57:56.520Z,37.41
2019-03-09T16:00:27.319Z,37.55
2019-03-09T16:02:58.620Z,37.79
2019-03-09T16:05:29.506Z,37.66
2019-03-09T16:08:00.325Z,37.83
2019-03-09T16:10:31.255Z,38.03
2019-03-09T16:13:05.296Z,38.17
2019-03-09T16:15:36.095Z,38.30
2019-03-09T16:18:07.057Z,38.30
2019-03-09T16:20:40.723Z,38.34
2019-03-09T16:23:11.604Z,38.44
2019-03-09T16:25:42.202Z,38.86
2019-03-09T16:28:13.036Z,38.74
2019-03-09T16:30:44.184Z,38.82
2019-03-09T16:33:14.714Z,39.07
2019-03-09T16:35:45.588Z,39.46
2019-03-09T16:38:16.307Z,39.47
2019-03-09T16:40:47.020Z,39.85
2019-03-09T16:43:18.034Z,40.04
2019-03-09T16:45:48.722Z,39.93
2019-03-09T16:48:19.534Z,39.94
2019-03-09T16:50:50.252Z,40.04
2019-03-09T16:53:23.239Z,40.11
2019-03-09T16:55:54.524Z,40.26
2019-03-09T16:58:26.390Z,40.49
2019-03-09T17:00:58.310Z,40.60
2019-03-09T17:03:29.047Z,40.78
2019-03-09T17:05:59.665Z,40.93
2019-03-09T17:08:31.997Z,40.90
2019-03-09T17:11:02.774Z,40.80
2019-03-09T17:13:33.478Z,40.81
2019-03-09T17:16:04.916Z,40.76
2019-03-09T17:18:36.323Z,40.67
2019-03-09T17:21:07.238Z,40.60
2019-03-09T17:23:38.052Z,40.49
2019-03-09T17:26:08.803Z,40.41
2019-03-09T17:28:39.493Z,40.39
2019-03-09T17:31:10.668Z,40.31
2019-03-09T17:33:41.309Z,40.47
2019-03-09T17:36:12.027Z,40.36
2019-03-09T17:38:42.715Z,40.41
2019-03-09T17:41:16.186Z,40.40
2019-03-09T17:43:46.803Z,40.57
2019-03-09T17:46:17.564Z,40.86
2019-03-09T17:48:48.308Z,40.83
2019-03-09T17:51:20.467Z,40.82
2019-03-09T17:53:52.592Z,40.86
2019-03-09T17:56:23.355Z,41.13
2019-03-09T17:58:54.228Z,41.23
2019-03-09T18:01:25.107Z,41.46
2019-03-09T18:03:55.913Z,41.65
2019-03-09T18:06:28.467Z,41.69
2019-03-09T18:08:59.218Z,41.72
2019-03-09T18:11:30.319Z,41.62
2019-03-09T18:14:06.969Z,41.65
2019-03-09T18:16:34.696Z,41.71
2019-03-09T18:19:05.521Z,41.78
2019-03-09T18:21:36.226Z,41.78
2019-03-09T18:24:07.707Z,41.94
2019-03-09T18:26:38.924Z,41.92
2019-03-09T18:29:09.682Z,41.87
2019-03-09T18:31:40.788Z,41.86
2019-03-09T18:34:11.816Z,41.75
2019-03-09T18:36:42.779Z,41.57
2019-03-09T18:39:14.066Z,41.38
2019-03-09T18:42:05.032Z,41.03
2019-03-09T18:44:35.678Z,40.98
2019-03-09T18:47:06.709Z,40.99
2019-03-09T18:49:37.672Z,41.00
2019-03-09T18:52:08.473Z,41.10
2019-03-09T18:54:39.407Z,41.09
2019-03-09T18:57:10.203Z,41.14
2019-03-09T18:59:40.998Z,41.06
2019-03-09T19:02:11.791Z,41.22
2019-03-09T19:04:43.785Z,41.37
2019-03-09T19:07:14.426Z,41.29
2019-03-09T19:09:45.363Z,41.05
2019-03-09T19:12:17.335Z,40.81
2019-03-09T19:14:50.921Z,40.93
2019-03-09T19:17:23.575Z,40.90
2019-03-09T19:19:54.734Z,40.99
2019-03-09T19:22:25.290Z,41.16
2019-03-09T19:24:56.446Z,41.19
2019-03-09T19:27:27.385Z,41.30
2019-03-09T19:29:58.455Z,41.28
2019-03-09T19:32:30.611Z,41.46
2019-03-09T19:35:01.327Z,41.17
2019-03-09T19:37:32.014Z,40.98
2019-03-09T19:40:02.871Z,41.17
2019-03-09T19:42:33.588Z,41.55
2019-03-09T19:45:04.590Z,41.65
2019-03-09T19:47:35.461Z,41.88
2019-03-09T19:50:06.608Z,42.22
2019-03-09T19:52:37.505Z,43.00
2019-03-09T19:55:08.393Z,44.61
2019-03-09T19:57:39.035Z,45.50
2019-03-09T20:00:10.375Z,45.29
2019-03-09T20:02:42.319Z,44.95
2019-03-09T20:05:13.258Z,44.79
2019-03-09T20:07:44.344Z,44.92
2019-03-09T20:10:15.613Z,45.12
2019-03-09T20:12:47.772Z,45.27
2019-03-09T20:15:18.819Z,45.37
2019-03-09T20:17:50.867Z,45.33
2019-03-09T20:20:22.356Z,45.13
2019-03-09T20:22:53.267Z,45.13
2019-03-09T20:25:24.452Z,44.84
2019-03-09T20:27:55.249Z,44.84
2019-03-09T20:30:27.263Z,44.84
2019-03-09T20:32:58.133Z,45.02
2019-03-09T20:35:29.252Z,44.92
2019-03-09T20:38:00.160Z,45.13
2019-03-09T20:40:32.652Z,45.32
2019-03-09T20:43:04.561Z,45.23
2019-03-09T20:45:35.472Z,45.14
2019-03-09T20:48:06.169Z,45.37
2019-03-09T20:50:37.572Z,45.25
2019-03-09T20:53:09.986Z,45.07
2019-03-09T20:55:40.837Z,44.91
2019-03-09T20:58:13.459Z,44.85
2019-03-09T21:00:45.480Z,44.90
2019-03-09T21:03:16.489Z,44.86
2019-03-09T21:05:48.569Z,44.75
2019-03-09T21:08:19.496Z,44.59
2019-03-09T21:10:50.030Z,44.63
2019-03-09T21:13:20.758Z,44.63
2019-03-09T21:15:53.256Z,44.55
2019-03-09T21:18:24.226Z,44.63
2019-03-09T21:20:54.920Z,44.58
2019-03-09T21:23:25.804Z,44.67
2019-03-09T21:25:56.827Z,44.84
2019-03-09T21:28:27.541Z,45.02
2019-03-09T21:30:58.570Z,45.10
2019-03-09T21:33:29.324Z,45.18
2019-03-09T21:36:01.040Z,45.36
2019-03-09T21:38:31.879Z,45.54
2019-03-09T21:41:02.975Z,45.48
2019-03-09T21:43:34.139Z,45.90
2019-03-09T21:46:05.029Z,45.95
2019-03-09T21:48:37.293Z,46.10
2019-03-09T21:51:07.979Z,46.14
2019-03-09T21:53:38.770Z,46.22
2019-03-09T21:56:09.763Z,46.31
2019-03-09T21:58:40.567Z,46.24
2019-03-09T22:01:11.442Z,46.25
2019-03-09T22:03:41.934Z,46.20
2019-03-09T22:06:12.643Z,46.08
2019-03-09T22:08:43.888Z,46.05
2019-03-09T22:11:15.774Z,45.93
2019-03-09T22:13:47.678Z,45.93
2019-03-09T22:16:18.448Z,47.70
2019-03-09T22:18:49.325Z,50.29
2019-03-09T22:21:20.230Z,53.24
2019-03-09T22:23:51.385Z,49.40
2019-03-09T22:26:22.153Z,51.50
2019-03-09T22:28:54.524Z,52.88
2019-03-09T22:31:25.005Z,52.20
2019-03-09T22:33:55.960Z,50.21
2019-03-09T22:36:27.946Z,49.53
2019-03-09T22:38:58.515Z,49.52
2019-03-09T22:41:29.022Z,48.83
2019-03-09T22:43:59.651Z,48.58
2019-03-09T22:46:30.542Z,48.53
2019-03-09T22:49:01.432Z,48.18
2019-03-09T22:51:32.122Z,48.68
2019-03-09T22:54:03.088Z,48.45
2019-03-09T22:56:33.976Z,49.51
2019-03-09T22:59:06.385Z,50.38
2019-03-09T23:01:39.303Z,50.62
2019-03-09T23:04:10.947Z,51.00
2019-03-09T23:06:49.150Z,51.81
2019-03-09T23:09:19.977Z,51.77
2019-03-09T23:11:53.298Z,52.12
2019-03-09T23:14:24.456Z,51.93
2019-03-09T23:16:54.998Z,51.59
2019-03-09T23:19:26.520Z,51.68
2019-03-09T23:21:57.547Z,51.53
2019-03-09T23:24:28.102Z,51.01
2019-03-09T23:27:00.160Z,50.82
2019-03-09T23:29:30.965Z,50.77
2019-03-09T23:32:01.631Z,50.79
2019-03-09T23:34:32.362Z,50.65
2019-03-09T23:37:03.054Z,50.95
2019-03-09T23:39:34.031Z,50.65
2019-03-09T23:42:04.607Z,50.81
2019-03-09T23:44:35.444Z,50.78
2019-03-09T23:47:09.393Z,51.11
2019-03-09T23:49:40.350Z,51.07
2019-03-09T23:52:10.893Z,51.32
2019-03-09T23:54:41.903Z,51.39
2019-03-09T23:57:12.679Z,51.40
2019-03-09T23:59:43.298Z,51.51
